createdAt,value
2023-02-25T00:02:47.540Z,78.35
2023-02-25T00:05:49.410Z,78.28
2023-02-25T00:08:52.409Z,78.28
2023-02-25T00:11:54.189Z,78.35
2023-02-25T00:14:55.811Z,78.12
2023-02-25T00:17:57.437Z,78.17
2023-02-25T00:20:59.598Z,78.15
2023-02-25T00:24:15.222Z,78.14
2023-02-25T00:27:17.550Z,78.20
2023-02-25T00:30:19.181Z,78.20
2023-02-25T00:33:20.629Z,78.19
2023-02-25T00:36:24.957Z,78.21
2023-02-25T00:39:26.727Z,78.31
2023-02-25T00:42:28.228Z,78.21
2023-02-25T00:45:29.936Z,78.24
2023-02-25T00:48:31.520Z,78.20
2023-02-25T00:51:33.317Z,78.32
2023-02-25T00:54:34.892Z,78.24
2023-02-25T00:57:36.396Z,78.16
2023-02-25T01:00:51.356Z,78.41
2023-02-25T01:03:55.327Z,78.27
2023-02-25T01:06:57.545Z,78.02
2023-02-25T01:09:59.129Z,77.92
2023-02-25T01:13:00.642Z,77.51
2023-02-25T01:16:02.351Z,77.28
2023-02-25T01:19:09.795Z,76.68
2023-02-25T01:22:11.854Z,76.93
2023-02-25T01:25:14.062Z,77.09
2023-02-25T01:28:15.703Z,77.32
2023-02-25T01:31:18.200Z,77.40
2023-02-25T01:34:23.051Z,77.78
2023-02-25T01:37:25.045Z,77.52
2023-02-25T01:40:26.643Z,78.15
2023-02-25T01:43:29.164Z,78.16
2023-02-25T01:46:31.085Z,78.87
2023-02-25T01:49:39.113Z,80.08
2023-02-25T01:52:41.278Z,80.34
2023-02-25T01:55:43.247Z,80.65
2023-02-25T01:58:45.058Z,81.49
2023-02-25T02:01:47.020Z,81.74
2023-02-25T02:04:49.808Z,82.64
2023-02-25T02:07:51.384Z,82.55
2023-02-25T02:10:53.109Z,83.19
2023-02-25T02:13:55.416Z,84.16
2023-02-25T02:17:28.962Z,83.98
2023-02-25T02:21:03.202Z,84.48
2023-02-25T02:24:42.964Z,84.32
2023-02-25T02:28:03.367Z,84.49
2023-02-25T02:31:16.663Z,83.78
2023-02-25T02:34:42.568Z,83.97
2023-02-25T02:37:57.088Z,83.06
2023-02-25T02:41:25.565Z,83.64
2023-02-25T02:44:31.192Z,83.92
2023-02-25T02:47:52.656Z,83.68
2023-02-25T02:50:58.315Z,84.39
2023-02-25T02:54:01.405Z,84.12
2023-02-25T02:57:04.117Z,84.08
2023-02-25T03:00:10.726Z,83.87
2023-02-25T03:03:29.103Z,84.46
2023-02-25T03:06:34.198Z,84.55
2023-02-25T03:09:40.234Z,83.77
2023-02-25T03:12:41.786Z,83.24
2023-02-25T03:15:44.433Z,82.74
2023-02-25T03:19:01.785Z,82.47
2023-02-25T03:22:13.214Z,82.35
2023-02-25T03:25:19.417Z,82.57
2023-02-25T03:28:30.524Z,82.47
2023-02-25T03:31:41.070Z,82.30
2023-02-25T03:34:46.649Z,82.28
2023-02-25T03:37:51.322Z,82.04
2023-02-25T03:40:53.885Z,81.93
2023-02-25T03:43:56.789Z,81.98
2023-02-25T03:47:00.022Z,81.91
2023-02-25T03:50:14.685Z,81.76
2023-02-25T03:53:16.495Z,81.78
2023-02-25T03:56:18.363Z,81.66
2023-02-25T03:59:19.867Z,81.35
2023-02-25T04:02:27.015Z,81.19
2023-02-25T04:05:28.681Z,81.11
2023-02-25T04:08:30.441Z,81.11
2023-02-25T04:11:32.707Z,81.02
2023-02-25T04:14:34.331Z,80.99
2023-02-25T04:17:36.388Z,80.95
2023-02-25T04:20:38.362Z,80.88
2023-02-25T04:23:39.914Z,80.76
2023-02-25T04:26:41.534Z,80.82
2023-02-25T04:29:43.581Z,80.81
2023-02-25T04:32:45.293Z,80.97
2023-02-25T04:35:46.870Z,80.89
2023-02-25T04:38:48.415Z,81.00
2023-02-25T04:41:50.219Z,80.88
2023-02-25T04:44:51.729Z,81.14
2023-02-25T04:47:53.907Z,81.04
2023-02-25T04:50:55.490Z,81.05
2023-02-25T04:53:57.432Z,81.27
2023-02-25T04:56:59.052Z,81.39
2023-02-25T05:00:00.575Z,81.46
2023-02-25T05:03:02.103Z,81.39
2023-02-25T05:06:04.549Z,81.61
2023-02-25T05:09:06.958Z,81.59
2023-02-25T05:12:09.474Z,82.04
2023-02-25T05:15:11.549Z,81.70
2023-02-25T05:18:13.038Z,81.85
2023-02-25T05:21:25.849Z,81.94
2023-02-25T05:24:27.421Z,81.93
2023-02-25T05:27:29.065Z,81.68
2023-02-25T05:30:30.874Z,82.06
2023-02-25T05:33:32.508Z,81.95
2023-02-25T05:36:34.261Z,81.98
2023-02-25T05:39:36.426Z,82.42
2023-02-25T05:42:38.021Z,82.32
2023-02-25T05:45:39.603Z,81.88
2023-02-25T05:48:42.693Z,81.92
2023-02-25T05:51:44.262Z,81.81
2023-02-25T05:54:45.869Z,81.71
2023-02-25T05:57:47.418Z,81.64
2023-02-25T06:00:49.429Z,81.78
2023-02-25T06:03:51.811Z,81.62
2023-02-25T06:06:53.469Z,82.13
2023-02-25T06:09:55.071Z,82.07
2023-02-25T06:12:56.798Z,81.70
2023-02-25T06:15:58.410Z,81.50
2023-02-25T06:19:00.917Z,81.91
2023-02-25T06:22:02.502Z,81.52
2023-02-25T06:25:04.357Z,81.35
2023-02-25T06:28:05.962Z,81.40
2023-02-25T06:31:11.612Z,81.44
2023-02-25T06:34:13.191Z,81.37
2023-02-25T06:37:16.324Z,81.34
2023-02-25T06:40:18.346Z,81.30
2023-02-25T06:43:19.912Z,81.97
2023-02-25T06:46:24.419Z,81.80
2023-02-25T06:49:26.342Z,81.66
2023-02-25T06:52:28.618Z,81.67
2023-02-25T06:55:30.332Z,81.79
2023-02-25T06:58:32.287Z,81.68
2023-02-25T07:01:33.937Z,81.57
2023-02-25T07:04:35.452Z,81.66
2023-02-25T07:07:37.447Z,81.98
2023-02-25T07:10:39.049Z,81.60
2023-02-25T07:13:40.783Z,81.60
2023-02-25T07:16:42.497Z,82.00
2023-02-25T07:19:44.047Z,81.66
2023-02-25T07:22:45.938Z,82.33
2023-02-25T07:25:47.477Z,81.53
2023-02-25T07:28:49.201Z,81.02
2023-02-25T07:31:50.836Z,80.53
2023-02-25T07:34:52.700Z,80.06
2023-02-25T07:37:54.197Z,79.61
2023-02-25T07:40:55.754Z,79.75
2023-02-25T07:43:57.313Z,79.62
2023-02-25T07:46:58.772Z,79.26
2023-02-25T07:50:00.347Z,78.49
2023-02-25T07:53:01.929Z,77.11
2023-02-25T07:56:03.698Z,75.53
2023-02-25T07:59:05.465Z,75.03
2023-02-25T08:02:07.258Z,73.78
2023-02-25T08:05:09.140Z,71.92
2023-02-25T08:08:10.909Z,72.73
2023-02-25T08:11:14.447Z,71.77
2023-02-25T08:14:16.133Z,72.58
2023-02-25T08:17:17.963Z,71.17
2023-02-25T08:20:19.632Z,71.33
2023-02-25T08:23:21.190Z,70.09
2023-02-25T08:26:23.207Z,70.18
2023-02-25T08:29:24.828Z,70.20
2023-02-25T08:32:26.694Z,70.27
2023-02-25T08:35:28.540Z,69.50
2023-02-25T08:38:30.075Z,69.13
2023-02-25T08:41:31.521Z,69.73
2023-02-25T08:44:33.410Z,69.17
2023-02-25T08:47:34.916Z,69.16
2023-02-25T08:50:36.355Z,69.93
2023-02-25T08:53:39.062Z,69.90
2023-02-25T08:56:41.014Z,69.46
2023-02-25T08:59:42.892Z,68.62
2023-02-25T09:02:44.392Z,69.10
2023-02-25T09:05:59.812Z,68.90
2023-02-25T09:09:01.336Z,69.54
2023-02-25T09:12:02.941Z,68.32
2023-02-25T09:15:05.268Z,68.58
2023-02-25T09:18:07.158Z,69.40
2023-02-25T09:21:08.780Z,68.99
2023-02-25T09:24:10.524Z,69.71
2023-02-25T09:27:12.240Z,70.48
2023-02-25T09:30:14.789Z,70.56
2023-02-25T09:33:16.410Z,71.19
2023-02-25T09:36:18.846Z,71.65
2023-02-25T09:39:20.473Z,72.09
2023-02-25T09:42:22.726Z,72.07
2023-02-25T09:45:25.146Z,72.03
2023-02-25T09:48:31.475Z,71.95
2023-02-25T09:51:37.131Z,70.34
2023-02-25T09:54:44.413Z,67.11
2023-02-25T09:57:56.204Z,64.52
2023-02-25T10:01:10.092Z,62.63
2023-02-25T10:04:38.022Z,61.45
2023-02-25T10:07:51.809Z,63.32
2023-02-25T10:11:07.032Z,67.08
2023-02-25T10:14:23.368Z,70.12
2023-02-25T10:17:44.167Z,71.56
2023-02-25T10:20:57.029Z,72.21
2023-02-25T10:24:14.103Z,70.55
2023-02-25T10:27:30.237Z,68.19
2023-02-25T10:31:05.897Z,67.91
2023-02-25T10:34:23.399Z,66.32
2023-02-25T10:37:29.163Z,64.58
2023-02-25T10:40:30.859Z,63.90
2023-02-25T10:43:34.166Z,63.46
2023-02-25T10:46:40.431Z,63.24
2023-02-25T10:50:23.104Z,60.88
2023-02-25T10:53:26.198Z,59.19
2023-02-25T10:56:46.137Z,59.61
2023-02-25T10:59:47.786Z,60.66
2023-02-25T11:02:51.770Z,61.16
2023-02-25T11:06:18.224Z,60.51
2023-02-25T11:09:19.728Z,58.67
2023-02-25T11:12:21.376Z,57.17
2023-02-25T11:15:45.717Z,56.93
2023-02-25T11:18:53.041Z,55.23
2023-02-25T11:21:55.300Z,54.46
2023-02-25T11:25:01.824Z,55.83
2023-02-25T11:28:04.237Z,54.20
2023-02-25T11:31:16.978Z,54.60
2023-02-25T11:34:27.561Z,54.66
2023-02-25T11:37:43.300Z,54.97
2023-02-25T11:40:47.245Z,56.93
2023-02-25T11:43:49.058Z,57.93
2023-02-25T11:47:16.623Z,58.23
2023-02-25T11:50:27.869Z,58.28
2023-02-25T11:53:38.754Z,59.40
2023-02-25T11:56:43.390Z,60.97
2023-02-25T12:00:05.121Z,62.92
2023-02-25T12:03:22.424Z,64.32
2023-02-25T12:06:32.778Z,66.13
2023-02-25T12:10:02.752Z,67.19
2023-02-25T12:13:53.019Z,69.01
2023-02-25T12:17:19.082Z,70.92
2023-02-25T12:20:20.790Z,71.76
2023-02-25T12:23:28.078Z,71.75
2023-02-25T12:26:51.429Z,72.91
2023-02-25T12:30:27.548Z,74.33
2023-02-25T12:33:50.858Z,75.66
2023-02-25T12:37:03.121Z,74.69
2023-02-25T12:40:19.067Z,74.29
2023-02-25T12:43:26.830Z,74.85
2023-02-25T12:46:58.017Z,74.26
2023-02-25T12:50:25.870Z,73.61
2023-02-25T12:53:43.110Z,72.12
2023-02-25T12:56:53.948Z,70.94
2023-02-25T13:00:33.579Z,71.04
2023-02-25T13:03:54.411Z,70.24
2023-02-25T13:07:23.773Z,70.50
2023-02-25T13:10:37.410Z,75.06
2023-02-25T13:14:03.849Z,77.40
2023-02-25T13:17:25.686Z,79.02
2023-02-25T13:20:27.205Z,77.95
2023-02-25T13:23:36.168Z,76.88
2023-02-25T13:27:12.447Z,77.27
2023-02-25T13:30:23.272Z,77.42
2023-02-25T13:33:46.879Z,77.24
2023-02-25T13:37:07.592Z,77.29
2023-02-25T13:40:38.614Z,77.09
2023-02-25T13:43:51.896Z,77.64
2023-02-25T13:47:10.370Z,77.54
2023-02-25T13:50:27.477Z,78.09
2023-02-25T13:53:44.567Z,78.05
2023-02-25T13:56:55.658Z,78.31
2023-02-25T14:00:00.314Z,78.61
2023-02-25T14:03:32.091Z,78.15
2023-02-25T14:06:56.649Z,76.52
2023-02-25T14:10:32.892Z,76.12
2023-02-25T14:13:58.120Z,75.53
2023-02-25T14:17:21.818Z,75.79
2023-02-25T14:20:42.576Z,75.75
2023-02-25T14:23:55.977Z,75.88
2023-02-25T14:27:28.833Z,75.28
2023-02-25T14:31:12.722Z,75.68
2023-02-25T14:34:31.533Z,75.16
2023-02-25T14:37:48.437Z,74.84
2023-02-25T14:40:59.940Z,74.75
2023-02-25T14:44:06.657Z,75.44
2023-02-25T14:47:19.413Z,75.80
2023-02-25T14:50:26.441Z,76.03
2023-02-25T14:53:50.469Z,75.92
2023-02-25T14:57:07.881Z,75.84
2023-02-25T15:00:32.802Z,75.49
2023-02-25T15:03:52.291Z,75.22
2023-02-25T15:07:09.330Z,74.82
2023-02-25T15:10:22.990Z,75.35
2023-02-25T15:13:37.350Z,75.60
2023-02-25T15:16:56.062Z,75.24
2023-02-25T15:20:27.029Z,74.87
2023-02-25T15:23:45.323Z,75.18
2023-02-25T15:26:47.781Z,74.83
2023-02-25T15:29:57.166Z,73.54
2023-02-25T15:33:26.874Z,73.46
2023-02-25T15:36:41.841Z,73.39
2023-02-25T15:39:43.422Z,73.35
2023-02-25T15:42:54.962Z,73.70
2023-02-25T15:46:08.940Z,74.06
2023-02-25T15:49:16.933Z,73.98
2023-02-25T15:52:52.033Z,73.80
2023-02-25T15:56:13.616Z,74.03
2023-02-25T15:59:47.248Z,74.57
2023-02-25T16:02:53.227Z,74.83
2023-02-25T16:06:00.277Z,74.71
2023-02-25T16:09:12.522Z,75.05
2023-02-25T16:12:15.142Z,75.24
2023-02-25T16:15:31.119Z,75.54
2023-02-25T16:18:41.685Z,75.67
2023-02-25T16:21:48.122Z,75.78
2023-02-25T16:24:52.269Z,76.29
2023-02-25T16:28:04.536Z,76.68
2023-02-25T16:31:22.967Z,77.08
2023-02-25T16:34:33.189Z,77.17
2023-02-25T16:37:44.025Z,77.42
2023-02-25T16:40:45.778Z,77.42
2023-02-25T16:43:47.273Z,77.44
2023-02-25T16:46:53.483Z,77.50
2023-02-25T16:49:56.757Z,77.48
2023-02-25T16:52:58.887Z,77.67
2023-02-25T16:56:01.138Z,78.03
2023-02-25T16:59:08.862Z,77.67
2023-02-25T17:02:16.431Z,77.71
2023-02-25T17:05:36.862Z,77.40
2023-02-25T17:08:44.239Z,77.79
2023-02-25T17:11:51.248Z,78.09
2023-02-25T17:14:53.835Z,78.22
2023-02-25T17:18:24.073Z,78.18
2023-02-25T17:21:45.588Z,78.07
2023-02-25T17:24:47.250Z,78.50
2023-02-25T17:27:49.833Z,78.17
2023-02-25T17:30:52.083Z,78.60
2023-02-25T17:33:56.847Z,78.07
2023-02-25T17:37:01.165Z,77.84
2023-02-25T17:40:06.337Z,77.64
2023-02-25T17:43:14.093Z,77.31
2023-02-25T17:46:34.987Z,76.94
2023-02-25T17:49:37.552Z,76.57
2023-02-25T17:52:39.664Z,76.65
2023-02-25T17:55:41.269Z,76.25
2023-02-25T17:58:44.181Z,76.22
2023-02-25T18:01:47.619Z,75.97
2023-02-25T18:04:50.186Z,76.17
2023-02-25T18:07:57.752Z,76.33
2023-02-25T18:11:04.365Z,76.52
2023-02-25T18:14:44.488Z,76.43
2023-02-25T18:17:54.308Z,76.58
2023-02-25T18:20:57.834Z,76.41
2023-02-25T18:24:01.203Z,76.48
2023-02-25T18:27:07.224Z,76.72
2023-02-25T18:30:11.777Z,77.09
2023-02-25T18:33:13.544Z,77.45
2023-02-25T18:36:25.604Z,77.50
2023-02-25T18:39:27.646Z,77.14
2023-02-25T18:42:29.381Z,77.08
2023-02-25T18:45:32.912Z,77.06
2023-02-25T18:48:35.682Z,76.97
2023-02-25T18:51:37.268Z,77.20
2023-02-25T18:54:38.808Z,77.03
2023-02-25T18:57:40.720Z,77.01
2023-02-25T19:00:43.862Z,76.93
2023-02-25T19:03:45.590Z,76.82
2023-02-25T19:06:47.190Z,76.99
2023-02-25T19:09:49.115Z,76.96
2023-02-25T19:12:52.825Z,77.08
2023-02-25T19:15:54.495Z,76.81
2023-02-25T19:18:56.323Z,76.93
2023-02-25T19:21:58.979Z,77.23
2023-02-25T19:25:00.546Z,77.96
2023-02-25T19:28:02.697Z,77.79
2023-02-25T19:31:06.244Z,78.18
2023-02-25T19:34:08.069Z,78.41
2023-02-25T19:37:11.663Z,78.90
2023-02-25T19:40:15.982Z,79.05
2023-02-25T19:43:17.985Z,78.95
2023-02-25T19:46:19.553Z,78.97
2023-02-25T19:49:21.430Z,79.25
2023-02-25T19:52:23.137Z,79.18
2023-02-25T19:55:24.707Z,79.09
2023-02-25T19:58:26.464Z,79.02
2023-02-25T20:01:28.098Z,79.17
2023-02-25T20:04:30.180Z,79.23
2023-02-25T20:07:31.889Z,79.06
2023-02-25T20:10:33.349Z,78.94
2023-02-25T20:13:35.040Z,78.90
2023-02-25T20:16:36.571Z,79.15
2023-02-25T20:19:38.517Z,78.87
2023-02-25T20:22:40.160Z,79.00
2023-02-25T20:25:41.699Z,79.00
2023-02-25T20:28:43.311Z,78.68
2023-02-25T20:31:45.234Z,78.71
2023-02-25T20:34:47.084Z,78.97
2023-02-25T20:38:02.263Z,78.85
2023-02-25T20:41:04.036Z,78.61
2023-02-25T20:44:05.952Z,78.77
2023-02-25T20:47:08.211Z,78.85
2023-02-25T20:50:10.533Z,78.62
2023-02-25T20:53:12.209Z,78.63
2023-02-25T20:56:18.033Z,79.00
2023-02-25T20:59:19.573Z,78.84
2023-02-25T21:02:21.740Z,79.23
2023-02-25T21:05:23.356Z,79.11
2023-02-25T21:08:25.257Z,79.59
2023-02-25T21:11:27.128Z,79.72
2023-02-25T21:14:30.631Z,79.58
2023-02-25T21:17:32.218Z,79.56
2023-02-25T21:20:33.769Z,79.07
2023-02-25T21:23:36.891Z,79.21
2023-02-25T21:26:38.783Z,79.19
2023-02-25T21:29:40.339Z,79.49
2023-02-25T21:32:41.994Z,79.67
2023-02-25T21:35:45.313Z,80.06
2023-02-25T21:38:53.398Z,80.08
2023-02-25T21:41:55.002Z,80.34
2023-02-25T21:44:56.571Z,80.25
2023-02-25T21:47:58.189Z,80.31
2023-02-25T21:51:00.220Z,80.04
2023-02-25T21:54:02.454Z,80.22
2023-02-25T21:57:04.011Z,79.82
2023-02-25T22:00:06.173Z,79.76
2023-02-25T22:03:07.929Z,79.97
2023-02-25T22:06:09.513Z,79.72
2023-02-25T22:09:11.173Z,79.62
2023-02-25T22:12:13.327Z,80.12
2023-02-25T22:15:15.040Z,80.34
2023-02-25T22:18:16.611Z,80.33
2023-02-25T22:21:21.127Z,80.31
2023-02-25T22:24:22.766Z,80.50
2023-02-25T22:27:24.461Z,80.39
2023-02-25T22:30:25.990Z,80.36
2023-02-25T22:33:28.191Z,80.21
2023-02-25T22:36:29.811Z,80.71
2023-02-25T22:39:31.370Z,80.73
2023-02-25T22:42:32.946Z,81.36
2023-02-25T22:45:34.631Z,81.56
2023-02-25T22:48:37.858Z,81.45
2023-02-25T22:51:44.216Z,81.75
2023-02-25T22:54:46.169Z,81.96
2023-02-25T22:57:47.921Z,82.18
2023-02-25T23:00:51.130Z,82.52
2023-02-25T23:03:54.646Z,82.47
2023-02-25T23:06:56.268Z,82.63
2023-02-25T23:09:57.832Z,82.81
2023-02-25T23:13:00.951Z,82.68
2023-02-25T23:16:03.191Z,82.28
2023-02-25T23:19:05.147Z,82.47
2023-02-25T23:22:06.755Z,81.63
2023-02-25T23:25:08.824Z,81.66
2023-02-25T23:28:10.453Z,81.41
2023-02-25T23:31:19.679Z,81.85
2023-02-25T23:34:23.390Z,82.07
2023-02-25T23:37:25.330Z,81.75
2023-02-25T23:40:27.040Z,81.61
2023-02-25T23:43:28.979Z,81.22
2023-02-25T23:46:32.410Z,81.14
2023-02-25T23:49:34.047Z,81.41
2023-02-25T23:52:35.883Z,81.23
2023-02-25T23:55:37.754Z,81.31
2023-02-25T23:58:39.542Z,80.98
